De Leon, Texas
Current Conditions -  °F | °C
As of 9:55 AM on Friday 28 Nov 2014 (Local Time) from KMKN Reporting Station
Clear Clear  
Wind Chill: 55°   Ceiling: Unl
Heat Index: 55°   Visibility: 10mi
Dew Point: 49°   Wind: 22mph
Humidity: 78%   Direction: 210°SSW
Pressure: 30.22"   Gusts: 35mph
Location:  32.11°N, 98.54°W
Report Text: KMKN 281555Z AUTO 21019G30KT 10SM CLR 13/09 A3022 RMK AO2 T01300092
Loading
Personal Weather Stations






























Interactive Weather Map New forecast layout! Learn more

10-Day Weather Forecast

Advertisements
Track Severe Weather on mobile